Time;durP1;ratioP1;P1;durP2;ratioP2;P2;SDS_P1;SDS_P2;PMS_P1;PMS_P2;Temp;Humidity;BMP_temperature;BMP_pressure;BME280_temperature;BME280_humidity;BME280_pressure;Samples;Min_cycle;Max_cycle;Signal;HPM_P1;HPM_P2
2022/04/07 00:08:44;;;;;;;2.03;0.73;;;10.20;99.90;;;;;;20803745;28;20053;-46
2022/04/07 00:18:46;;;;;;;1.90;0.90;;;10.10;99.90;;;;;;20803676;28;20041;-46
2022/04/07 00:28:51;;;;;;;3.55;0.77;;;9.70;99.90;;;;;;20773243;28;20053;-46
2022/04/07 00:38:52;;;;;;;2.58;0.85;;;9.60;99.90;;;;;;20795929;28;20622;-46
2022/04/07 00:48:53;;;;;;;2.58;0.63;;;9.60;99.90;;;;;;20782971;28;20057;-46
2022/04/07 00:58:54;;;;;;;2.28;0.85;;;9.70;99.90;;;;;;20788222;28;20042;-46
2022/04/07 01:08:56;;;;;;;9.23;0.98;;;9.80;99.90;;;;;;20778092;28;20054;-45
2022/04/07 01:18:59;;;;;;;6.75;2.30;;;9.80;99.90;;;;;;20790455;28;20044;-45
2022/04/07 01:29:00;;;;;;;9.65;2.25;;;9.90;99.90;;;;;;20789539;28;20041;-45
2022/04/07 01:39:03;;;;;;;11.13;1.00;;;9.90;99.90;;;;;;20780990;28;20045;-45
2022/04/07 01:49:05;;;;;;;2.83;0.90;;;9.80;99.90;;;;;;20775274;28;20057;-46
2022/04/07 01:59:08;;;;;;;3.05;1.10;;;9.70;99.90;;;;;;20781518;28;20052;-46
2022/04/07 02:09:09;;;;;;;6.80;1.25;;;9.70;99.90;;;;;;20771064;28;20037;-46
2022/04/07 02:19:10;;;;;;;5.22;2.03;;;9.80;99.90;;;;;;20771696;28;20080;-45
2022/04/07 02:29:11;;;;;;;6.18;0.93;;;9.70;99.90;;;;;;20774433;28;20041;-46
2022/04/07 02:39:13;;;;;;;5.70;1.60;;;9.50;99.90;;;;;;20769650;28;20049;-46
2022/04/07 02:49:14;;;;;;;5.57;0.88;;;9.60;99.90;;;;;;20767783;28;20493;-46
2022/04/07 02:59:15;;;;;;;6.82;1.80;;;9.70;99.90;;;;;;20770397;28;20578;-46
2022/04/07 03:09:18;;;;;;;8.32;1.50;;;9.80;99.90;;;;;;20775501;28;20085;-46
2022/04/07 03:19:19;;;;;;;11.45;1.33;;;9.90;99.90;;;;;;20771083;28;20046;-45
2022/04/07 03:29:21;;;;;;;4.85;1.23;;;9.90;99.90;;;;;;20763069;28;20049;-45
2022/04/07 03:39:22;;;;;;;5.80;0.93;;;9.80;99.90;;;;;;20769643;28;20045;-45
2022/04/07 03:49:23;;;;;;;6.82;0.98;;;9.80;99.90;;;;;;20774445;28;20705;-45
2022/04/07 03:59:24;;;;;;;7.82;1.02;;;9.70;99.90;;;;;;20776932;28;20402;-46
2022/04/07 04:09:25;;;;;;;18.50;2.50;;;9.60;99.90;;;;;;20774980;28;20053;-45
2022/04/07 04:19:27;;;;;;;2.80;1.17;;;9.50;99.90;;;;;;20799549;28;20400;-46
2022/04/07 04:29:28;;;;;;;8.18;0.98;;;9.50;99.90;;;;;;20797852;28;20063;-45
2022/04/07 04:39:29;;;;;;;7.50;1.80;;;9.50;99.90;;;;;;20794008;28;20547;-46
2022/04/07 04:49:30;;;;;;;3.72;1.02;;;9.50;99.90;;;;;;20803543;28;20050;-45
2022/04/07 04:59:31;;;;;;;9.80;0.85;;;9.40;99.90;;;;;;20816395;28;20051;-45
2022/04/07 05:09:34;;;;;;;3.78;0.50;;;9.40;99.90;;;;;;20822703;28;20060;-45
2022/04/07 05:19:38;;;;;;;3.28;1.42;;;9.30;99.90;;;;;;20807914;28;20052;-47
2022/04/07 05:29:40;;;;;;;8.15;1.27;;;9.30;99.90;;;;;;20810562;28;20051;-44
2022/04/07 05:39:41;;;;;;;3.78;0.70;;;9.20;99.90;;;;;;20732503;28;20038;-45
2022/04/07 05:49:42;;;;;;;2.03;0.20;;;9.20;99.90;;;;;;20698116;28;20298;-45
2022/04/07 05:59:43;;;;;;;0.90;0.30;;;7.40;99.90;;;;;;20700583;28;20038;-46
2022/04/07 06:09:44;;;;;;;1.60;0.20;;;6.00;99.90;;;;;;20682252;28;20053;-46
2022/04/07 06:19:46;;;;;;;7.47;0.93;;;6.00;99.90;;;;;;20682356;28;20104;-45
2022/04/07 06:29:47;;;;;;;10.02;0.70;;;6.00;99.90;;;;;;20689964;28;20065;-46
2022/04/07 06:39:48;;;;;;;0.90;0.38;;;6.20;99.90;;;;;;20743415;28;20053;-46
2022/04/07 06:49:53;;;;;;;2.67;0.50;;;6.40;99.90;;;;;;20784493;28;20051;-46
2022/04/07 06:59:55;;;;;;;1.27;1.20;;;6.40;99.90;;;;;;20786542;28;20029;-46
2022/04/07 07:09:55;;;;;;;0.65;0.10;;;6.40;99.90;;;;;;20786327;28;20041;-46
2022/04/07 07:20:00;;;;;;;1.00;0.30;;;6.20;99.90;;;;;;20787255;28;20045;-46
2022/04/07 07:30:02;;;;;;;0.52;0.10;;;6.40;99.90;;;;;;20786727;28;20504;-46
2022/04/07 07:40:08;;;;;;;0.35;0.20;;;6.50;99.90;;;;;;20782987;28;20083;-45
2022/04/07 07:50:09;;;;;;;1.38;0.32;;;6.50;99.90;;;;;;20782369;28;20057;-45
2022/04/07 08:00:14;;;;;;;0.40;0.22;;;6.60;99.90;;;;;;20801751;28;20109;-45
2022/04/07 08:10:15;;;;;;;3.10;0.65;;;6.70;99.90;;;;;;20801759;28;20041;-45
2022/04/07 08:20:17;;;;;;;0.77;0.20;;;6.90;99.90;;;;;;20795285;28;20413;-45
2022/04/07 08:30:18;;;;;;;0.88;0.20;;;7.60;99.90;;;;;;20809330;28;20045;-45
2022/04/07 08:40:21;;;;;;;3.00;0.43;;;8.30;99.90;;;;;;20816966;28;20041;-45
2022/04/07 08:50:23;;;;;;;3.65;0.73;;;9.00;99.90;;;;;;20816955;28;20156;-46
2022/04/07 09:00:24;;;;;;;6.30;0.93;;;9.30;99.90;;;;;;20814450;28;20510;-46
2022/04/07 09:10:28;;;;;;;9.00;1.40;;;9.30;99.90;;;;;;20813562;28;20099;-45
2022/04/07 09:20:39;;;;;;;3.15;0.47;;;9.50;99.90;;;;;;20813497;28;20048;-44
2022/04/07 09:30:49;;;;;;;7.82;0.77;;;9.50;99.90;;;;;;20813937;28;20059;-45
2022/04/07 09:40:50;;;;;;;1.25;0.30;;;9.60;99.90;;;;;;20813877;28;20501;-46
2022/04/07 09:51:02;;;;;;;2.30;0.30;;;10.10;99.90;;;;;;20821565;28;20038;-44
2022/04/07 10:01:04;;;;;;;9.30;0.55;;;10.20;99.90;;;;;;20822151;28;20045;-47
2022/04/07 10:11:05;;;;;;;3.30;0.30;;;10.00;99.90;;;;;;20822146;28;20435;-45
2022/04/07 10:21:10;;;;;;;3.15;0.85;;;10.00;99.90;;;;;;20818278;28;20056;-47
2022/04/07 10:31:14;;;;;;;1.95;0.40;;;9.90;99.90;;;;;;20813318;28;20046;-45
2022/04/07 10:41:37;;;;;;;5.13;0.40;;;9.70;99.90;;;;;;20812858;28;20439;-45
2022/04/07 10:51:56;;;;;;;4.28;1.05;;;9.70;99.90;;;;;;20803259;28;20243;-44
2022/04/07 11:01:58;;;;;;;5.25;0.60;;;9.90;99.90;;;;;;20809735;28;21402;-44
2022/04/07 11:12:12;;;;;;;1.92;0.43;;;10.20;99.90;;;;;;20818919;28;20431;-44
2022/04/07 11:22:13;;;;;;;1.90;0.47;;;10.90;99.90;;;;;;20814300;28;20059;-44
2022/04/07 11:32:15;;;;;;;3.13;0.60;;;11.20;99.90;;;;;;20811171;28;20141;-45
2022/04/07 11:42:18;;;;;;;1.60;0.75;;;11.90;99.90;;;;;;20810792;28;20058;-45
2022/04/07 11:52:31;;;;;;;3.42;0.60;;;12.30;99.90;;;;;;20808766;28;20052;-45
2022/04/07 12:02:32;;;;;;;9.63;0.82;;;12.90;99.90;;;;;;20810498;28;20048;-44
2022/04/07 12:12:34;;;;;;;3.40;0.50;;;12.80;99.90;;;;;;20811436;28;20484;-45
2022/04/07 12:22:35;;;;;;;3.70;1.17;;;12.60;99.90;;;;;;20806640;28;20045;-44
2022/04/07 12:32:44;;;;;;;4.90;0.82;;;12.60;99.90;;;;;;20812666;28;20041;-44
2022/04/07 12:42:53;;;;;;;1.58;0.70;;;12.70;99.90;;;;;;20825938;28;20045;-44
2022/04/07 12:52:54;;;;;;;3.25;0.52;;;12.40;99.90;;;;;;20826916;28;20076;-46
2022/04/07 13:02:57;;;;;;;4.00;0.32;;;11.80;99.90;;;;;;20824617;28;20094;-44
2022/04/07 13:12:58;;;;;;;3.88;0.90;;;11.70;99.90;;;;;;20820279;28;20033;-44
2022/04/07 13:22:59;;;;;;;3.45;1.00;;;11.70;99.90;;;;;;20819529;28;20045;-44
2022/04/07 13:33:00;;;;;;;4.95;0.88;;;11.80;99.90;;;;;;20820914;28;20053;-45
2022/04/07 13:43:02;;;;;;;1.45;0.40;;;11.80;99.90;;;;;;20825597;28;20049;-45
2022/04/07 13:53:04;;;;;;;0.85;0.30;;;11.80;99.90;;;;;;20818740;28;20109;-44
2022/04/07 14:03:06;;;;;;;2.45;0.28;;;11.90;99.90;;;;;;20793286;28;20535;-44
2022/04/07 14:13:07;;;;;;;1.13;0.30;;;11.70;99.90;;;;;;20810947;28;20041;-44
2022/04/07 14:23:10;;;;;;;3.88;0.52;;;11.40;99.90;;;;;;20809923;28;20049;-44
2022/04/07 14:33:11;;;;;;;2.17;0.35;;;10.90;99.90;;;;;;20806792;28;20049;-43
2022/04/07 14:43:13;;;;;;;1.08;0.20;;;9.80;99.90;;;;;;20812990;28;20049;-44
2022/04/07 14:53:14;;;;;;;2.70;0.60;;;8.80;99.90;;;;;;20808551;28;20052;-43
2022/04/07 15:03:15;;;;;;;2.40;0.20;;;8.60;99.90;;;;;;20785365;28;20051;-43
2022/04/07 15:13:16;;;;;;;0.28;0.10;;;7.60;99.90;;;;;;20794505;28;20594;-44
2022/04/07 15:23:17;;;;;;;2.50;0.38;;;7.30;99.90;;;;;;20775489;28;20045;-44
2022/04/07 15:33:19;;;;;;;0.60;0.10;;;7.80;99.90;;;;;;20798354;28;20048;-44
2022/04/07 15:43:21;;;;;;;0.40;0.15;;;7.50;99.90;;;;;;20800914;28;20057;-44
2022/04/07 15:53:21;;;;;;;0.50;0.30;;;7.60;99.90;;;;;;20799671;28;20052;-46
2022/04/07 16:03:23;;;;;;;2.13;0.38;;;7.30;99.90;;;;;;20793079;28;20049;-45
2022/04/07 16:13:25;;;;;;;1.52;0.55;;;7.50;99.90;;;;;;20808071;28;20041;-44
2022/04/07 16:23:26;;;;;;;2.25;0.15;;;7.70;99.90;;;;;;20809031;28;20041;-44
2022/04/07 16:33:27;;;;;;;0.80;0.10;;;7.20;99.90;;;;;;20796169;28;20041;-46
2022/04/07 16:43:31;;;;;;;1.00;0.20;;;7.20;99.90;;;;;;20804433;28;20148;-44
2022/04/07 16:53:33;;;;;;;3.05;0.40;;;7.20;99.90;;;;;;20809528;28;20043;-46
2022/04/07 17:03:36;;;;;;;3.70;0.52;;;7.30;99.90;;;;;;20810551;28;20042;-44
2022/04/07 17:13:37;;;;;;;3.75;0.20;;;7.60;99.90;;;;;;20796092;28;20038;-43
2022/04/07 17:23:38;;;;;;;0.32;0.05;;;7.80;99.90;;;;;;20796765;28;20413;-44
2022/04/07 17:33:40;;;;;;;1.02;0.25;;;8.00;99.90;;;;;;20800099;28;20072;-44
2022/04/07 17:43:41;;;;;;;0.65;0.10;;;7.90;99.90;;;;;;20780108;28;20042;-44
2022/04/07 17:53:45;;;;;;;0.55;0.10;;;7.70;99.90;;;;;;20781667;28;20092;-44
2022/04/07 18:03:46;;;;;;;0.28;0.10;;;7.00;99.90;;;;;;20778353;28;20398;-44
2022/04/07 18:13:47;;;;;;;4.55;0.70;;;6.90;99.90;;;;;;20787450;28;20045;-44
2022/04/07 18:23:48;;;;;;;2.50;0.30;;;7.10;99.90;;;;;;20779589;28;20512;-44
2022/04/07 18:33:49;;;;;;;1.98;0.20;;;7.50;99.90;;;;;;20778707;28;20065;-44
2022/04/07 18:43:50;;;;;;;8.38;0.85;;;7.70;99.90;;;;;;20766930;28;20049;-43
2022/04/07 18:53:52;;;;;;;1.67;0.30;;;7.50;99.90;;;;;;20784066;28;20041;-44
2022/04/07 19:03:54;;;;;;;1.83;0.55;;;7.40;99.90;;;;;;20785397;28;20037;-44
2022/04/07 19:13:55;;;;;;;3.13;0.68;;;7.50;99.90;;;;;;20782461;28;20050;-44
2022/04/07 19:23:57;;;;;;;2.03;0.60;;;7.60;99.90;;;;;;20775278;28;20045;-44
2022/04/07 19:33:58;;;;;;;3.15;1.23;;;7.70;99.90;;;;;;20777326;28;20053;-43
2022/04/07 19:44:00;;;;;;;3.85;1.10;;;7.70;99.90;;;;;;20782148;28;20137;-44
2022/04/07 19:54:01;;;;;;;1.13;0.35;;;7.70;99.90;;;;;;20778604;28;20033;-44
2022/04/07 20:04:02;;;;;;;2.45;0.60;;;7.80;99.90;;;;;;20803621;28;20053;-44
2022/04/07 20:14:04;;;;;;;3.00;0.40;;;7.80;99.90;;;;;;20794904;28;20037;-43
2022/04/07 20:24:05;;;;;;;4.75;0.70;;;7.90;99.90;;;;;;20797380;28;20057;-45
2022/04/07 20:34:06;;;;;;;3.33;0.82;;;7.80;99.90;;;;;;20807138;28;20046;-44
2022/04/07 20:44:08;;;;;;;3.13;0.60;;;7.80;99.90;;;;;;20816804;28;20067;-44
2022/04/07 20:54:09;;;;;;;2.70;0.43;;;7.60;99.90;;;;;;20815807;28;20046;-44
2022/04/07 21:04:10;;;;;;;1.58;0.38;;;7.50;99.90;;;;;;20814062;28;20072;-44
2022/04/07 21:14:12;;;;;;;4.85;0.70;;;7.50;99.90;;;;;;20816372;28;20042;-44
2022/04/07 21:24:13;;;;;;;8.60;0.73;;;7.60;99.90;;;;;;20817837;28;20048;-43
2022/04/07 21:34:15;;;;;;;4.28;0.70;;;7.50;99.90;;;;;;20819221;28;20123;-44
2022/04/07 21:44:16;;;;;;;4.90;0.45;;;7.40;99.90;;;;;;20820863;28;20062;-44
2022/04/07 21:54:20;;;;;;;2.53;0.43;;;7.40;99.90;;;;;;20820229;28;20038;-44
2022/04/07 22:04:21;;;;;;;13.20;2.28;;;7.30;99.90;;;;;;20812183;28;20045;-44
2022/04/07 22:14:22;;;;;;;4.82;0.65;;;7.30;99.90;;;;;;20813575;28;20041;-44
2022/04/07 22:24:23;;;;;;;3.95;0.65;;;7.30;99.90;;;;;;20788630;28;20067;-45
2022/04/07 22:34:24;;;;;;;6.30;0.65;;;7.30;99.90;;;;;;20811836;28;20072;-44
2022/04/07 22:44:25;;;;;;;1.40;0.40;;;7.30;99.90;;;;;;20813223;28;20429;-44
2022/04/07 22:54:27;;;;;;;3.40;0.65;;;7.10;99.90;;;;;;20808211;28;20065;-44
2022/04/07 23:04:28;;;;;;;2.17;0.60;;;6.90;99.90;;;;;;20809080;28;20056;-44
2022/04/07 23:14:30;;;;;;;3.20;0.63;;;7.00;99.90;;;;;;20786744;28;20056;-44
2022/04/07 23:24:32;;;;;;;3.72;0.90;;;6.90;99.90;;;;;;20797056;28;20052;-44
2022/04/07 23:34:36;;;;;;;0.88;0.40;;;6.80;99.90;;;;;;20799818;28;20080;-44
2022/04/07 23:44:41;;;;;;;5.35;0.55;;;6.70;99.90;;;;;;20801582;28;20045;-44
2022/04/07 23:54:42;;;;;;;1.33;0.52;;;6.70;99.90;;;;;;20780743;28;20037;-44
